Jessica S. Settoon — WDD9545 — position and weather

sailwx.info

Track history (hours):
 
Tides and Currents Weather Stations Pressure Air Temp Water Temp Dewpoint Dewpoint Depression Visibility Wind Speed Wind Dir Waves Ship Positions

Jessica S. Settoon

Owner: Settoon Towing LLC, Houma, LA. More information available from US FCC via Universal Licensing System and Coast Guard Vessel Documentation Center.

Last reported at 2014-Oct-01 03:33 UTC. Time now 2014-Oct-01 04:09 UTC.
Position N 29°41' W 091°10'.

Length 17 m; draft 3 m.

Type: Tug. MMSI: 367312940.

Date/timePositionNaut miles runAvg speedWind from/ knotsBaromVisibWave heightAir tempDewpointWater temp
2014-Oct-01 03:33N 29°41' W 091°10'0 0.0
2014-Oct-01 02:33N 29°41' W 091°10'0 0.0
2014-Oct-01 01:33N 29°41' W 091°10'0 0.0
2014-Oct-01 00:33N 29°41' W 091°10'1 0.9
2014-Sep-30 23:33N 29°41' W 091°09'4 4.4
2014-Sep-30 22:33N 29°38' W 091°05'4 4.4
2014-Sep-30 21:33N 29°36' W 091°09'5 4.9
2014-Sep-30 20:33N 29°32' W 091°06'3 2.6
2014-Sep-30 19:32N 29°33' W 091°04'0 0.1
2014-Sep-30 15:33N 29°33' W 091°04'2 2.3
2014-Sep-30 14:33N 29°35' W 091°06'1 0.6
2014-Sep-30 13:07N 29°36' W 091°05'0 0.0
2014-Sep-30 12:33N 29°36' W 091°05'0 0.0
2014-Sep-30 11:33N 29°36' W 091°05'0 0.0
2014-Sep-30 10:33N 29°36' W 091°05'0 0.0
2014-Sep-30 09:33N 29°36' W 091°05'0 0.0
2014-Sep-30 08:33N 29°36' W 091°05'0 0.0
2014-Sep-30 07:33N 29°36' W 091°05'0 0.0
2014-Sep-30 06:33N 29°36' W 091°05'0 0.0
2014-Sep-30 05:33N 29°36' W 091°05'0 0.0
2014-Sep-30 04:33N 29°36' W 091°05'0 0.0
2014-Sep-30 03:33N 29°36' W 091°05'0 0.0
2014-Sep-30 02:33N 29°36' W 091°05'0 0.0
2014-Sep-30 01:33N 29°36' W 091°05'0 0.0
2014-Sep-30 00:33N 29°36' W 091°05'0 0.0
2014-Sep-29 23:33N 29°36' W 091°05'1 0.8
2014-Sep-29 22:33N 29°35' W 091°06'2 2.1
2014-Sep-29 21:33N 29°33' W 091°05'3 3.0
2014-Sep-29 20:33N 29°33' W 091°09'4 4.0
2014-Sep-29 19:33N 29°37' W 091°07'  
2014-Sep-25 12:20N 29°32' W 090°52'0 0.1
2014-Sep-25 11:18N 29°32' W 090°52'0 0.0
2014-Sep-25 10:16N 29°32' W 090°52'0 0.0
2014-Sep-25 09:32N 29°32' W 090°52'0 0.0
2014-Sep-25 08:34N 29°32' W 090°52'0 0.0
2014-Sep-25 07:33N 29°32' W 090°52'0 0.0
2014-Sep-25 06:32N 29°32' W 090°52'0 0.0
2014-Sep-25 05:32N 29°32' W 090°52'0 0.0
2014-Sep-25 04:24N 29°32' W 090°52'0 0.0
2014-Sep-25 03:24N 29°32' W 090°52'0 0.3
2014-Sep-25 02:23N 29°32' W 090°53'6 6.6
2014-Sep-25 01:32N 29°35' W 090°58'6 6.6
2014-Sep-25 00:34N 29°38' W 091°05'6 5.6
2014-Sep-24 23:33N 29°41' W 091°10'0 0.3
2014-Sep-24 22:33N 29°41' W 091°10'0 0.0
2014-Sep-24 21:33N 29°41' W 091°10'0 0.0
2014-Sep-24 20:33N 29°41' W 091°10'0 0.0
2014-Sep-24 19:34N 29°41' W 091°10'0 0.0
2014-Sep-24 18:33N 29°41' W 091°10'0 0.0
2014-Sep-24 17:33N 29°41' W 091°10'0 0.0
2014-Sep-24 16:33N 29°41' W 091°10'0 0.0
2014-Sep-24 15:33N 29°41' W 091°10'0 0.0
2014-Sep-24 14:33N 29°41' W 091°10'0 0.0
2014-Sep-24 13:33N 29°41' W 091°10'0 0.0
2014-Sep-24 12:34N 29°41' W 091°10'0 0.0
2014-Sep-24 11:33N 29°41' W 091°10'0 0.0
2014-Sep-24 10:34N 29°41' W 091°10'0 0.0
2014-Sep-24 09:33N 29°41' W 091°10'0 0.0
2014-Sep-24 08:33N 29°41' W 091°10'0 0.0
2014-Sep-24 07:34N 29°41' W 091°10'0 0.0
2014-Sep-24 06:34N 29°41' W 091°10'0 0.0
2014-Sep-24 05:33N 29°41' W 091°10'0 0.0
2014-Sep-24 04:34N 29°41' W 091°10'0 0.0
2014-Sep-24 03:33N 29°41' W 091°10'0 0.0
2014-Sep-24 02:33N 29°41' W 091°10'0 0.0
2014-Sep-24 01:33N 29°41' W 091°10'0 0.0
2014-Sep-24 00:33N 29°41' W 091°10'0 0.0
2014-Sep-23 23:34N 29°41' W 091°10'0 0.0
2014-Sep-23 22:33N 29°41' W 091°10'0 0.0
2014-Sep-23 21:33N 29°41' W 091°10'0 0.0
2014-Sep-23 20:34N 29°41' W 091°10'0 0.0
2014-Sep-23 19:34N 29°41' W 091°10'0 0.0
2014-Sep-23 18:33N 29°41' W 091°10'0 0.0
2014-Sep-23 17:34N 29°41' W 091°10'0 0.0
2014-Sep-23 16:34N 29°41' W 091°10'0 0.0
2014-Sep-23 15:34N 29°41' W 091°10'0 0.0
2014-Sep-23 14:33N 29°41' W 091°10'0 0.0
2014-Sep-23 13:34N 29°41' W 091°10'0 0.0
2014-Sep-23 12:33N 29°41' W 091°10'0 0.0
2014-Sep-23 11:33N 29°41' W 091°10'0 0.0
2014-Sep-23 10:33N 29°41' W 091°10'0 0.0
2014-Sep-23 09:33N 29°41' W 091°10'0 0.0
2014-Sep-23 08:33N 29°41' W 091°10'0 0.0
2014-Sep-23 07:34N 29°41' W 091°10'0 0.0
2014-Sep-23 06:33N 29°41' W 091°10'0 0.0
2014-Sep-23 05:33N 29°41' W 091°10'0 0.0
2014-Sep-23 04:33N 29°41' W 091°10'0 0.0
2014-Sep-23 03:33N 29°41' W 091°10'0 0.0
2014-Sep-23 02:33N 29°41' W 091°10'0 0.0
2014-Sep-23 01:33N 29°41' W 091°10'0 0.0
2014-Sep-23 00:33N 29°41' W 091°10'0 0.0
2014-Sep-22 23:33N 29°41' W 091°10'0 0.0
2014-Sep-22 22:33N 29°41' W 091°10'0 0.0
2014-Sep-22 21:34N 29°41' W 091°10'0 0.0
2014-Sep-22 20:33N 29°41' W 091°10'0 0.0
2014-Sep-22 19:33N 29°41' W 091°10'0 0.0
2014-Sep-22 18:27N 29°41' W 091°10'0 0.0
2014-Sep-22 17:33N 29°41' W 091°10'0 0.0
2014-Sep-22 16:33N 29°41' W 091°10'0 0.0
2014-Sep-22 15:33N 29°41' W 091°10'0 0.0
2014-Sep-22 14:33N 29°41' W 091°10'0 0.0
2014-Sep-22 13:33N 29°41' W 091°10'0 0.0
2014-Sep-22 12:33N 29°41' W 091°10'0 0.1
2014-Sep-22 11:33N 29°41' W 091°10'0 0.0
2014-Sep-22 10:33N 29°41' W 091°10'0 0.0
2014-Sep-22 09:33N 29°41' W 091°10'0 0.0
2014-Sep-22 08:33N 29°41' W 091°10'0 0.0
2014-Sep-22 07:33N 29°41' W 091°10'0 0.0
2014-Sep-22 06:33N 29°41' W 091°10'0 0.0
2014-Sep-22 05:33N 29°41' W 091°10'0 0.0
2014-Sep-22 04:33N 29°41' W 091°10'0 0.0
2014-Sep-22 03:33N 29°41' W 091°10'0 0.0
2014-Sep-22 02:33N 29°41' W 091°10'0 0.0
2014-Sep-22 01:33N 29°41' W 091°10'0 0.2
2014-Sep-22 00:33N 29°41' W 091°10'0 0.0
2014-Sep-21 23:33N 29°41' W 091°10'0 0.0
2014-Sep-21 22:33N 29°41' W 091°10'0 0.0
2014-Sep-21 21:33N 29°41' W 091°10'0 0.0
2014-Sep-21 20:33N 29°41' W 091°10'0 0.0
2014-Sep-21 19:33N 29°41' W 091°10'5 4.6
2014-Sep-21 18:33N 29°38' W 091°06'7 6.0
2014-Sep-21 17:27N 29°37' W 090°59'2 0.4
2014-Sep-21 11:28N 29°37' W 090°56'0 0.0
2014-Sep-21 10:30N 29°37' W 090°56'0 0.0
2014-Sep-21 09:33N 29°37' W 090°56'0 0.0
2014-Sep-21 06:29N 29°37' W 090°56'  
Track history (hours):
 
Tides and Currents Weather Stations Pressure Air Temp Water Temp Dewpoint Dewpoint Depression Visibility Wind Speed Wind Dir Waves Ship Positions

Jessica S. Settoon

Owner: Settoon Towing LLC, Houma, LA. More information available from US FCC via Universal Licensing System and Coast Guard Vessel Documentation Center.

Last reported at 2014-Oct-01 03:33 UTC. Time now 2014-Oct-01 04:09 UTC.
Position N 29°41' W 091°10'.

Length 17 m; draft 3 m.

Type: Tug. MMSI: 367312940.

Date/timePositionNaut miles runAvg speedWind from/ knotsBaromVisibWave heightAir tempDewpointWater temp
2014-Oct-01 03:33N 29°41' W 091°10'0 0.0
2014-Oct-01 02:33N 29°41' W 091°10'0 0.0
2014-Oct-01 01:33N 29°41' W 091°10'0 0.0
2014-Oct-01 00:33N 29°41' W 091°10'1 0.9
2014-Sep-30 23:33N 29°41' W 091°09'4 4.4
2014-Sep-30 22:33N 29°38' W 091°05'4 4.4
2014-Sep-30 21:33N 29°36' W 091°09'5 4.9
2014-Sep-30 20:33N 29°32' W 091°06'3 2.6
2014-Sep-30 19:32N 29°33' W 091°04'0 0.1
2014-Sep-30 15:33N 29°33' W 091°04'2 2.3
2014-Sep-30 14:33N 29°35' W 091°06'1 0.6
2014-Sep-30 13:07N 29°36' W 091°05'0 0.0
2014-Sep-30 12:33N 29°36' W 091°05'0 0.0
2014-Sep-30 11:33N 29°36' W 091°05'0 0.0
2014-Sep-30 10:33N 29°36' W 091°05'0 0.0
2014-Sep-30 09:33N 29°36' W 091°05'0 0.0
2014-Sep-30 08:33N 29°36' W 091°05'0 0.0
2014-Sep-30 07:33N 29°36' W 091°05'0 0.0
2014-Sep-30 06:33N 29°36' W 091°05'0 0.0
2014-Sep-30 05:33N 29°36' W 091°05'0 0.0
2014-Sep-30 04:33N 29°36' W 091°05'0 0.0
2014-Sep-30 03:33N 29°36' W 091°05'0 0.0
2014-Sep-30 02:33N 29°36' W 091°05'0 0.0
2014-Sep-30 01:33N 29°36' W 091°05'0 0.0
2014-Sep-30 00:33N 29°36' W 091°05'0 0.0
2014-Sep-29 23:33N 29°36' W 091°05'1 0.8
2014-Sep-29 22:33N 29°35' W 091°06'2 2.1
2014-Sep-29 21:33N 29°33' W 091°05'3 3.0
2014-Sep-29 20:33N 29°33' W 091°09'4 4.0
2014-Sep-29 19:33N 29°37' W 091°07'  
2014-Sep-25 12:20N 29°32' W 090°52'0 0.1
2014-Sep-25 11:18N 29°32' W 090°52'0 0.0
2014-Sep-25 10:16N 29°32' W 090°52'0 0.0
2014-Sep-25 09:32N 29°32' W 090°52'0 0.0
2014-Sep-25 08:34N 29°32' W 090°52'0 0.0
2014-Sep-25 07:33N 29°32' W 090°52'0 0.0
2014-Sep-25 06:32N 29°32' W 090°52'0 0.0
2014-Sep-25 05:32N 29°32' W 090°52'0 0.0
2014-Sep-25 04:24N 29°32' W 090°52'0 0.0
2014-Sep-25 03:24N 29°32' W 090°52'0 0.3
2014-Sep-25 02:23N 29°32' W 090°53'6 6.6
2014-Sep-25 01:32N 29°35' W 090°58'6 6.6
2014-Sep-25 00:34N 29°38' W 091°05'6 5.6
2014-Sep-24 23:33N 29°41' W 091°10'0 0.3
2014-Sep-24 22:33N 29°41' W 091°10'0 0.0
2014-Sep-24 21:33N 29°41' W 091°10'0 0.0
2014-Sep-24 20:33N 29°41' W 091°10'0 0.0
2014-Sep-24 19:34N 29°41' W 091°10'0 0.0
2014-Sep-24 18:33N 29°41' W 091°10'0 0.0
2014-Sep-24 17:33N 29°41' W 091°10'0 0.0
2014-Sep-24 16:33N 29°41' W 091°10'0 0.0
2014-Sep-24 15:33N 29°41' W 091°10'0 0.0
2014-Sep-24 14:33N 29°41' W 091°10'0 0.0
2014-Sep-24 13:33N 29°41' W 091°10'0 0.0
2014-Sep-24 12:34N 29°41' W 091°10'0 0.0
2014-Sep-24 11:33N 29°41' W 091°10'0 0.0
2014-Sep-24 10:34N 29°41' W 091°10'0 0.0
2014-Sep-24 09:33N 29°41' W 091°10'0 0.0
2014-Sep-24 08:33N 29°41' W 091°10'0 0.0
2014-Sep-24 07:34N 29°41' W 091°10'0 0.0
2014-Sep-24 06:34N 29°41' W 091°10'0 0.0
2014-Sep-24 05:33N 29°41' W 091°10'0 0.0
2014-Sep-24 04:34N 29°41' W 091°10'0 0.0
2014-Sep-24 03:33N 29°41' W 091°10'0 0.0
2014-Sep-24 02:33N 29°41' W 091°10'0 0.0
2014-Sep-24 01:33N 29°41' W 091°10'0 0.0
2014-Sep-24 00:33N 29°41' W 091°10'0 0.0
2014-Sep-23 23:34N 29°41' W 091°10'0 0.0
2014-Sep-23 22:33N 29°41' W 091°10'0 0.0
2014-Sep-23 21:33N 29°41' W 091°10'0 0.0
2014-Sep-23 20:34N 29°41' W 091°10'0 0.0
2014-Sep-23 19:34N 29°41' W 091°10'0 0.0
2014-Sep-23 18:33N 29°41' W 091°10'0 0.0
2014-Sep-23 17:34N 29°41' W 091°10'0 0.0
2014-Sep-23 16:34N 29°41' W 091°10'0 0.0
2014-Sep-23 15:34N 29°41' W 091°10'0 0.0
2014-Sep-23 14:33N 29°41' W 091°10'0 0.0
2014-Sep-23 13:34N 29°41' W 091°10'0 0.0
2014-Sep-23 12:33N 29°41' W 091°10'0 0.0
2014-Sep-23 11:33N 29°41' W 091°10'0 0.0
2014-Sep-23 10:33N 29°41' W 091°10'0 0.0
2014-Sep-23 09:33N 29°41' W 091°10'0 0.0
2014-Sep-23 08:33N 29°41' W 091°10'0 0.0
2014-Sep-23 07:34N 29°41' W 091°10'0 0.0
2014-Sep-23 06:33N 29°41' W 091°10'0 0.0
2014-Sep-23 05:33N 29°41' W 091°10'0 0.0
2014-Sep-23 04:33N 29°41' W 091°10'0 0.0
2014-Sep-23 03:33N 29°41' W 091°10'0 0.0
2014-Sep-23 02:33N 29°41' W 091°10'0 0.0
2014-Sep-23 01:33N 29°41' W 091°10'0 0.0
2014-Sep-23 00:33N 29°41' W 091°10'0 0.0
2014-Sep-22 23:33N 29°41' W 091°10'0 0.0
2014-Sep-22 22:33N 29°41' W 091°10'0 0.0
2014-Sep-22 21:34N 29°41' W 091°10'0 0.0
2014-Sep-22 20:33N 29°41' W 091°10'0 0.0
2014-Sep-22 19:33N 29°41' W 091°10'0 0.0
2014-Sep-22 18:27N 29°41' W 091°10'0 0.0
2014-Sep-22 17:33N 29°41' W 091°10'0 0.0
2014-Sep-22 16:33N 29°41' W 091°10'0 0.0
2014-Sep-22 15:33N 29°41' W 091°10'0 0.0
2014-Sep-22 14:33N 29°41' W 091°10'0 0.0
2014-Sep-22 13:33N 29°41' W 091°10'0 0.0
2014-Sep-22 12:33N 29°41' W 091°10'0 0.1
2014-Sep-22 11:33N 29°41' W 091°10'0 0.0
2014-Sep-22 10:33N 29°41' W 091°10'0 0.0
2014-Sep-22 09:33N 29°41' W 091°10'0 0.0
2014-Sep-22 08:33N 29°41' W 091°10'0 0.0
2014-Sep-22 07:33N 29°41' W 091°10'0 0.0
2014-Sep-22 06:33N 29°41' W 091°10'0 0.0
2014-Sep-22 05:33N 29°41' W 091°10'0 0.0
2014-Sep-22 04:33N 29°41' W 091°10'0 0.0
2014-Sep-22 03:33N 29°41' W 091°10'0 0.0
2014-Sep-22 02:33N 29°41' W 091°10'0 0.0
2014-Sep-22 01:33N 29°41' W 091°10'0 0.2
2014-Sep-22 00:33N 29°41' W 091°10'0 0.0
2014-Sep-21 23:33N 29°41' W 091°10'0 0.0
2014-Sep-21 22:33N 29°41' W 091°10'0 0.0
2014-Sep-21 21:33N 29°41' W 091°10'0 0.0
2014-Sep-21 20:33N 29°41' W 091°10'0 0.0
2014-Sep-21 19:33N 29°41' W 091°10'5 4.6
2014-Sep-21 18:33N 29°38' W 091°06'7 6.0
2014-Sep-21 17:27N 29°37' W 090°59'2 0.4
2014-Sep-21 11:28N 29°37' W 090°56'0 0.0
2014-Sep-21 10:30N 29°37' W 090°56'0 0.0
2014-Sep-21 09:33N 29°37' W 090°56'0 0.0
2014-Sep-21 06:29N 29°37' W 090°56'  

Dump ship's entire track history